Time;durP1;ratioP1;P1;durP2;ratioP2;P2;SDS_P1;SDS_P2;PMS_P1;PMS_P2;Temp;Humidity;BMP_temperature;BMP_pressure;BME280_temperature;BME280_humidity;BME280_pressure;Samples;Min_cycle;Max_cycle;Signal;HPM_P1;HPM_P2
2021/06/07 00:01:56;;;;;;;35.67;26.98;;;;;;;;;;5037608;28;20025;-65
2021/06/07 00:04:23;;;;;;;35.78;25.25;;;;;;;;;;5038744;28;20029;-64
2021/06/07 00:06:49;;;;;;;37.03;25.77;;;;;;;;;;5020991;28;20080;-66
2021/06/07 00:09:16;;;;;;;34.10;25.85;;;;;;;;;;5020526;28;20036;-65
2021/06/07 00:11:43;;;;;;;34.15;25.98;;;;;;;;;;5020596;28;20021;-65
2021/06/07 00:14:09;;;;;;;34.10;24.73;;;;;;;;;;5020711;28;20026;-64
2021/06/07 00:16:36;;;;;;;36.10;25.95;;;;;;;;;;5021099;28;20500;-64
2021/06/07 00:19:03;;;;;;;40.38;28.67;;;;;;;;;;5038199;28;20022;-65
2021/06/07 00:21:30;;;;;;;37.72;26.83;;;;;;;;;;5020003;28;20091;-65
2021/06/07 00:23:57;;;;;;;36.78;26.83;;;;;;;;;;5019649;28;20021;-64
2021/06/07 00:26:23;;;;;;;41.53;29.00;;;;;;;;;;5020086;28;20402;-65
2021/06/07 00:28:50;;;;;;;37.35;27.92;;;;;;;;;;5020157;28;20340;-65
2021/06/07 00:31:16;;;;;;;43.22;28.67;;;;;;;;;;5037920;28;20366;-65
2021/06/07 00:33:42;;;;;;;48.10;29.52;;;;;;;;;;5037784;28;20025;-66
2021/06/07 00:36:09;;;;;;;39.75;28.48;;;;;;;;;;5020336;28;20053;-65
2021/06/07 00:38:35;;;;;;;42.15;30.58;;;;;;;;;;5020181;28;20179;-66
2021/06/07 00:41:04;;;;;;;47.03;31.67;;;;;;;;;;5020273;28;20025;-64
2021/06/07 00:43:30;;;;;;;42.80;30.85;;;;;;;;;;5020278;28;20508;-65
2021/06/07 00:45:56;;;;;;;43.55;30.35;;;;;;;;;;5020374;28;20432;-66
2021/06/07 00:48:22;;;;;;;44.83;30.77;;;;;;;;;;5019860;28;20029;-65
2021/06/07 00:50:59;;;;;;;44.67;31.15;;;;;;;;;;5020083;28;20033;-65
2021/06/07 00:53:25;;;;;;;47.13;32.63;;;;;;;;;;5037956;28;20029;-65
2021/06/07 00:55:54;;;;;;;47.97;33.50;;;;;;;;;;5020139;28;20029;-65
2021/06/07 00:58:21;;;;;;;50.55;35.53;;;;;;;;;;5034192;28;20034;-65
2021/06/07 01:00:47;;;;;;;52.30;33.60;;;;;;;;;;5016844;28;20076;-65
2021/06/07 01:03:14;;;;;;;52.45;34.33;;;;;;;;;;5015861;28;20034;-65
2021/06/07 01:05:41;;;;;;;48.15;34.40;;;;;;;;;;5016262;28;20021;-65
2021/06/07 01:08:07;;;;;;;51.10;35.28;;;;;;;;;;5033833;28;20401;-66
2021/06/07 01:10:34;;;;;;;53.97;35.13;;;;;;;;;;5033655;28;20029;-65
2021/06/07 01:13:00;;;;;;;49.08;34.85;;;;;;;;;;5033838;28;20068;-65
2021/06/07 01:15:27;;;;;;;53.78;34.30;;;;;;;;;;5016302;28;20476;-64
2021/06/07 01:17:53;;;;;;;53.45;36.72;;;;;;;;;;5033625;28;20025;-65
2021/06/07 01:20:20;;;;;;;51.47;35.83;;;;;;;;;;5015408;28;20037;-64
2021/06/07 01:22:47;;;;;;;49.60;33.92;;;;;;;;;;5033328;28;20033;-65
2021/06/07 01:25:16;;;;;;;55.25;34.90;;;;;;;;;;5033535;28;20053;-64
2021/06/07 01:27:42;;;;;;;54.35;35.83;;;;;;;;;;5033306;28;20033;-64
2021/06/07 01:30:13;;;;;;;51.45;35.05;;;;;;;;;;5070478;23;20118;-62
2021/06/07 01:32:39;;;;;;;45.38;29.48;;;;;;;;;;5052610;28;20584;-63
2021/06/07 01:35:07;;;;;;;47.28;31.20;;;;;;;;;;5034921;28;20025;-62
2021/06/07 01:37:33;;;;;;;49.50;33.15;;;;;;;;;;5053211;28;20028;-63
2021/06/07 01:39:59;;;;;;;42.88;29.90;;;;;;;;;;5052509;28;20033;-62
2021/06/07 01:42:25;;;;;;;44.65;29.80;;;;;;;;;;5052317;28;20029;-62
2021/06/07 01:44:51;;;;;;;45.30;29.85;;;;;;;;;;5034607;28;20017;-62
2021/06/07 01:47:17;;;;;;;50.05;33.03;;;;;;;;;;5052289;28;20104;-62
2021/06/07 01:49:44;;;;;;;43.17;30.45;;;;;;;;;;5052225;28;20104;-62
2021/06/07 01:52:10;;;;;;;48.80;30.75;;;;;;;;;;5034163;28;20029;-62
2021/06/07 01:54:37;;;;;;;45.67;31.33;;;;;;;;;;5034019;28;20025;-62
2021/06/07 01:57:03;;;;;;;41.08;29.80;;;;;;;;;;5052105;28;20513;-62
2021/06/07 01:59:29;;;;;;;42.53;29.58;;;;;;;;;;5034684;28;20449;-63
2021/06/07 02:01:55;;;;;;;39.28;27.88;;;;;;;;;;5034731;28;20033;-63
2021/06/07 02:04:22;;;;;;;37.88;27.92;;;;;;;;;;5035227;28;20460;-62
2021/06/07 02:06:48;;;;;;;42.75;28.08;;;;;;;;;;5035001;28;20389;-62
2021/06/07 02:09:14;;;;;;;43.00;29.33;;;;;;;;;;5052605;28;20021;-62
2021/06/07 02:11:41;;;;;;;38.45;28.52;;;;;;;;;;5052521;28;20021;-62
2021/06/07 02:14:07;;;;;;;41.30;27.25;;;;;;;;;;5052941;28;20041;-62
2021/06/07 02:16:38;;;;;;;39.03;26.88;;;;;;;;;;5052577;28;20029;-62
2021/06/07 02:19:07;;;;;;;37.25;26.88;;;;;;;;;;5052594;28;20067;-62
2021/06/07 02:21:33;;;;;;;37.90;27.15;;;;;;;;;;5052440;28;20025;-62
2021/06/07 02:24:00;;;;;;;42.05;27.35;;;;;;;;;;5052432;28;20043;-62
2021/06/07 02:26:27;;;;;;;46.22;27.98;;;;;;;;;;5033607;28;20092;-62
2021/06/07 02:28:54;;;;;;;39.90;28.13;;;;;;;;;;5052480;28;20099;-62
2021/06/07 02:31:21;;;;;;;40.07;29.70;;;;;;;;;;5034212;28;20539;-63
2021/06/07 02:33:48;;;;;;;45.67;29.25;;;;;;;;;;5034056;28;20035;-62
2021/06/07 02:36:15;;;;;;;45.17;29.85;;;;;;;;;;5034121;28;20062;-63
2021/06/07 02:38:40;;;;;;;44.83;31.40;;;;;;;;;;5051958;28;20032;-62
2021/06/07 02:41:07;;;;;;;47.63;33.85;;;;;;;;;;5051893;28;20041;-61
2021/06/07 02:43:32;;;;;;;42.80;32.22;;;;;;;;;;5050975;28;20036;-61
2021/06/07 02:45:58;;;;;;;44.20;32.30;;;;;;;;;;5051290;28;20021;-62
2021/06/07 02:48:24;;;;;;;46.47;32.05;;;;;;;;;;5033442;28;20036;-62
2021/06/07 02:50:53;;;;;;;46.35;32.28;;;;;;;;;;5051104;28;20477;-62
2021/06/07 02:53:19;;;;;;;52.10;33.53;;;;;;;;;;5051196;28;20120;-62
2021/06/07 02:55:57;;;;;;;50.08;35.75;;;;;;;;;;5051133;28;20072;-62
2021/06/07 02:58:24;;;;;;;48.15;32.97;;;;;;;;;;5032950;28;20373;-62
2021/06/07 03:00:51;;;;;;;48.00;33.38;;;;;;;;;;5050801;28;20032;-62
2021/06/07 03:03:18;;;;;;;49.53;33.00;;;;;;;;;;5032677;28;20028;-62
2021/06/07 03:05:44;;;;;;;40.47;31.45;;;;;;;;;;5032801;28;20082;-62
2021/06/07 03:08:13;;;;;;;41.63;29.45;;;;;;;;;;5050978;28;20025;-62
2021/06/07 03:10:40;;;;;;;48.53;32.10;;;;;;;;;;5032393;28;20028;-62
2021/06/07 03:13:07;;;;;;;37.70;30.17;;;;;;;;;;5032694;28;20033;-62
2021/06/07 03:15:33;;;;;;;43.00;30.60;;;;;;;;;;5050613;28;20388;-62
2021/06/07 03:17:59;;;;;;;43.55;29.67;;;;;;;;;;5032700;28;20025;-62
2021/06/07 03:20:30;;;;;;;43.00;30.52;;;;;;;;;;5049640;28;20436;-61
2021/06/07 03:22:58;;;;;;;40.53;30.35;;;;;;;;;;5032197;28;20037;-62
2021/06/07 03:25:24;;;;;;;41.53;28.95;;;;;;;;;;5032199;28;20029;-62
2021/06/07 03:27:51;;;;;;;40.00;28.65;;;;;;;;;;5050354;28;20071;-62
2021/06/07 03:30:17;;;;;;;39.88;31.20;;;;;;;;;;5032216;28;20132;-62
2021/06/07 03:32:43;;;;;;;41.28;30.83;;;;;;;;;;5032495;28;20021;-62
2021/06/07 03:35:11;;;;;;;39.08;28.88;;;;;;;;;;5050399;28;20028;-61
2021/06/07 03:37:37;;;;;;;40.58;30.35;;;;;;;;;;5049891;28;20111;-62
2021/06/07 03:40:05;;;;;;;48.00;30.90;;;;;;;;;;5032237;28;20079;-62
2021/06/07 03:42:31;;;;;;;44.03;31.60;;;;;;;;;;5032323;28;20117;-62
2021/06/07 03:44:57;;;;;;;38.78;30.70;;;;;;;;;;5050286;28;20451;-61
2021/06/07 03:47:23;;;;;;;39.95;29.25;;;;;;;;;;5032588;28;20025;-62
2021/06/07 03:49:49;;;;;;;42.53;30.45;;;;;;;;;;5032323;28;20024;-62
2021/06/07 03:52:15;;;;;;;39.00;28.55;;;;;;;;;;5032371;28;20029;-62
2021/06/07 03:54:41;;;;;;;40.83;30.98;;;;;;;;;;5032318;28;20048;-62
2021/06/07 03:57:07;;;;;;;40.30;28.85;;;;;;;;;;5032474;28;20145;-62
2021/06/07 03:59:33;;;;;;;39.42;28.92;;;;;;;;;;5032123;28;20337;-62
2021/06/07 04:02:02;;;;;;;42.15;29.45;;;;;;;;;;5050496;28;20027;-63
2021/06/07 04:04:29;;;;;;;41.67;31.27;;;;;;;;;;5032687;28;20036;-62
2021/06/07 04:06:55;;;;;;;37.85;28.75;;;;;;;;;;5050443;28;20075;-62
2021/06/07 04:09:21;;;;;;;38.50;29.02;;;;;;;;;;5032540;28;20025;-62
2021/06/07 04:11:47;;;;;;;37.88;28.50;;;;;;;;;;5050245;28;20596;-62
2021/06/07 04:14:13;;;;;;;39.20;29.15;;;;;;;;;;5032616;28;20056;-62
2021/06/07 04:16:39;;;;;;;39.97;28.23;;;;;;;;;;5032600;28;20120;-61
2021/06/07 04:19:05;;;;;;;37.38;27.58;;;;;;;;;;5050343;28;20032;-62
2021/06/07 04:21:31;;;;;;;36.40;26.67;;;;;;;;;;5032200;28;20431;-61
2021/06/07 04:23:57;;;;;;;37.42;27.38;;;;;;;;;;5032288;28;20028;-62
2021/06/07 04:26:23;;;;;;;36.03;28.70;;;;;;;;;;5050186;28;20066;-62
2021/06/07 04:28:49;;;;;;;35.15;27.38;;;;;;;;;;5049889;28;20051;-62
2021/06/07 04:31:15;;;;;;;37.72;27.52;;;;;;;;;;5050547;28;20017;-62
2021/06/07 04:33:41;;;;;;;35.05;27.63;;;;;;;;;;5035983;28;20041;-61
2021/06/07 04:36:07;;;;;;;40.67;29.67;;;;;;;;;;5036483;28;20081;-60
2021/06/07 04:38:33;;;;;;;36.70;27.83;;;;;;;;;;5053988;28;20025;-61
2021/06/07 04:40:59;;;;;;;41.55;30.33;;;;;;;;;;5053569;28;20021;-63
2021/06/07 04:43:25;;;;;;;37.63;27.75;;;;;;;;;;5053722;28;20017;-62
2021/06/07 04:45:51;;;;;;;35.22;27.60;;;;;;;;;;5035377;28;20061;-62
2021/06/07 04:48:17;;;;;;;40.88;28.05;;;;;;;;;;5053740;28;20032;-62
2021/06/07 04:50:44;;;;;;;34.58;28.35;;;;;;;;;;5035149;28;20035;-62
2021/06/07 04:53:11;;;;;;;38.42;27.25;;;;;;;;;;5053272;28;20112;-62
2021/06/07 04:55:55;;;;;;;42.92;33.10;;;;;;;;;;5035162;28;20029;-62
2021/06/07 04:58:23;;;;;;;33.70;26.58;;;;;;;;;;5034606;28;20183;-61
2021/06/07 05:00:53;;;;;;;35.97;28.15;;;;;;;;;;5052343;28;20025;-61
2021/06/07 05:03:19;;;;;;;37.05;27.90;;;;;;;;;;5034244;28;20025;-61
2021/06/07 05:05:45;;;;;;;35.25;28.52;;;;;;;;;;5052950;28;20029;-62
2021/06/07 05:08:11;;;;;;;34.70;26.77;;;;;;;;;;5035318;28;20029;-62
2021/06/07 05:10:38;;;;;;;39.10;31.42;;;;;;;;;;5053253;28;20108;-62
2021/06/07 05:13:04;;;;;;;32.50;26.05;;;;;;;;;;5034843;28;20041;-60
2021/06/07 05:15:33;;;;;;;39.80;28.02;;;;;;;;;;5052780;28;20032;-62
2021/06/07 05:17:59;;;;;;;34.15;26.08;;;;;;;;;;5052750;28;20106;-61
2021/06/07 05:20:27;;;;;;;32.63;25.45;;;;;;;;;;5052253;28;20033;-62
2021/06/07 05:22:54;;;;;;;33.80;26.85;;;;;;;;;;5052218;28;20031;-62
2021/06/07 05:25:20;;;;;;;32.42;24.80;;;;;;;;;;5052215;28;20025;-63
2021/06/07 05:27:47;;;;;;;33.92;26.75;;;;;;;;;;5034658;28;20029;-62
2021/06/07 05:30:13;;;;;;;33.50;25.27;;;;;;;;;;5050618;28;20036;-62
2021/06/07 05:32:39;;;;;;;31.45;24.23;;;;;;;;;;5033223;28;20025;-62
2021/06/07 05:35:07;;;;;;;32.13;24.77;;;;;;;;;;5051164;28;20044;-62
2021/06/07 05:37:33;;;;;;;36.50;26.23;;;;;;;;;;5033259;28;20025;-62
2021/06/07 05:39:59;;;;;;;37.22;25.08;;;;;;;;;;5050347;28;20108;-62
2021/06/07 05:42:25;;;;;;;33.33;25.70;;;;;;;;;;5051226;28;20017;-63
2021/06/07 05:44:51;;;;;;;41.70;26.52;;;;;;;;;;5050349;28;20489;-61
2021/06/07 05:47:19;;;;;;;34.22;26.02;;;;;;;;;;5050872;28;20017;-62
2021/06/07 05:49:45;;;;;;;38.35;26.85;;;;;;;;;;5050630;28;20029;-61
2021/06/07 05:52:11;;;;;;;32.53;26.20;;;;;;;;;;5050037;28;20440;-62
2021/06/07 05:54:37;;;;;;;32.28;25.27;;;;;;;;;;5050548;28;20087;-63
2021/06/07 05:57:04;;;;;;;38.42;25.67;;;;;;;;;;5050761;28;20115;-61
2021/06/07 05:59:30;;;;;;;35.10;26.48;;;;;;;;;;5033027;28;20051;-59
2021/06/07 06:01:56;;;;;;;32.22;25.77;;;;;;;;;;5050461;28;20671;-62
2021/06/07 06:04:23;;;;;;;32.10;24.95;;;;;;;;;;5050698;28;20060;-62
2021/06/07 06:06:49;;;;;;;32.78;25.77;;;;;;;;;;5032835;28;20036;-63
2021/06/07 06:09:15;;;;;;;30.58;24.63;;;;;;;;;;5050461;28;20035;-61
2021/06/07 06:11:42;;;;;;;34.47;25.60;;;;;;;;;;5050537;28;20033;-62
2021/06/07 06:14:09;;;;;;;32.88;25.48;;;;;;;;;;5050793;28;20028;-62
2021/06/07 06:16:35;;;;;;;34.67;26.35;;;;;;;;;;5032724;28;20029;-61
2021/06/07 06:19:01;;;;;;;33.38;25.70;;;;;;;;;;5032727;28;20088;-60
2021/06/07 06:21:27;;;;;;;33.63;26.60;;;;;;;;;;5032439;28;20037;-61
2021/06/07 06:23:57;;;;;;;32.83;25.27;;;;;;;;;;5050451;28;20017;-60
2021/06/07 06:26:23;;;;;;;32.53;25.92;;;;;;;;;;5049786;28;20100;-59
2021/06/07 06:28:49;;;;;;;32.50;26.17;;;;;;;;;;5042677;28;83866;-60
2021/06/07 06:31:15;;;;;;;33.00;24.60;;;;;;;;;;5035695;28;20039;-60
2021/06/07 06:33:42;;;;;;;32.92;25.35;;;;;;;;;;5049309;28;20505;-60
2021/06/07 06:36:08;;;;;;;33.30;25.20;;;;;;;;;;5049886;28;20032;-60
2021/06/07 06:38:34;;;;;;;31.10;24.85;;;;;;;;;;5049889;28;20028;-59
2021/06/07 06:41:00;;;;;;;31.52;22.85;;;;;;;;;;5031522;28;20400;-58
2021/06/07 06:43:26;;;;;;;31.13;23.23;;;;;;;;;;5048927;28;20040;-61
2021/06/07 06:45:52;;;;;;;32.17;22.67;;;;;;;;;;5045911;28;20029;-60
2021/06/07 06:48:19;;;;;;;31.48;24.27;;;;;;;;;;5047870;28;20025;-59
2021/06/07 06:50:45;;;;;;;29.65;22.38;;;;;;;;;;5035692;28;20037;-60
2021/06/07 06:53:13;;;;;;;32.58;22.95;;;;;;;;;;5029667;28;20026;-59
2021/06/07 06:55:40;;;;;;;36.45;24.52;;;;;;;;;;5048175;28;20021;-59
2021/06/07 06:58:08;;;;;;;29.58;22.98;;;;;;;;;;5049881;28;20432;-59
2021/06/07 07:00:37;;;;;;;29.70;22.13;;;;;;;;;;5049828;28;20441;-59
2021/06/07 07:03:04;;;;;;;29.88;21.92;;;;;;;;;;5039731;28;20349;-60
2021/06/07 07:05:30;;;;;;;26.42;21.15;;;;;;;;;;5030066;28;20033;-60
2021/06/07 07:07:56;;;;;;;29.83;22.17;;;;;;;;;;5029774;28;20083;-61
2021/06/07 07:10:22;;;;;;;29.60;21.35;;;;;;;;;;5030051;28;20029;-60
2021/06/07 07:12:48;;;;;;;26.40;21.25;;;;;;;;;;5011679;28;20076;-61
2021/06/07 07:15:14;;;;;;;28.30;21.35;;;;;;;;;;5030274;28;20021;-61
2021/06/07 07:17:40;;;;;;;27.80;20.60;;;;;;;;;;5012628;28;20409;-60
2021/06/07 07:20:07;;;;;;;29.23;21.20;;;;;;;;;;5022036;28;20388;-60
2021/06/07 07:22:33;;;;;;;26.98;20.45;;;;;;;;;;5032432;28;20024;-60
2021/06/07 07:24:59;;;;;;;24.77;20.10;;;;;;;;;;5050447;28;20020;-61
2021/06/07 07:27:25;;;;;;;24.80;19.40;;;;;;;;;;5050029;28;20374;-62
2021/06/07 07:29:51;;;;;;;28.58;19.00;;;;;;;;;;5058915;23;20053;-65
2021/06/07 07:32:18;;;;;;;29.58;20.30;;;;;;;;;;5030698;28;20029;-65
2021/06/07 07:34:44;;;;;;;28.40;20.08;;;;;;;;;;5031243;28;20018;-65
2021/06/07 07:37:10;;;;;;;27.48;19.10;;;;;;;;;;5013755;28;20032;-64
2021/06/07 07:39:37;;;;;;;26.55;19.17;;;;;;;;;;5013324;28;20109;-65
2021/06/07 07:42:03;;;;;;;26.23;20.00;;;;;;;;;;5030475;28;20037;-65
2021/06/07 07:44:29;;;;;;;26.77;19.58;;;;;;;;;;5013159;28;20024;-64
2021/06/07 07:46:55;;;;;;;25.85;20.00;;;;;;;;;;5013453;28;20104;-62
2021/06/07 07:49:21;;;;;;;28.73;20.17;;;;;;;;;;5031002;28;20112;-64
2021/06/07 07:51:48;;;;;;;24.40;19.45;;;;;;;;;;5013024;28;20037;-65
2021/06/07 07:54:14;;;;;;;27.05;18.20;;;;;;;;;;5030992;28;20073;-62
2021/06/07 07:56:40;;;;;;;24.95;17.75;;;;;;;;;;5013384;28;20028;-65
2021/06/07 07:59:06;;;;;;;24.70;18.90;;;;;;;;;;5031329;28;20393;-65
2021/06/07 08:01:33;;;;;;;25.48;18.88;;;;;;;;;;5030912;28;20030;-64
2021/06/07 08:04:00;;;;;;;26.88;19.63;;;;;;;;;;5030583;28;20155;-65
2021/06/07 08:06:26;;;;;;;25.95;18.48;;;;;;;;;;5030959;28;20117;-65
2021/06/07 08:08:52;;;;;;;27.60;18.13;;;;;;;;;;5034281;28;20026;-65
2021/06/07 08:11:19;;;;;;;25.92;18.50;;;;;;;;;;5017044;28;20028;-63
2021/06/07 08:13:45;;;;;;;28.23;19.17;;;;;;;;;;5034681;28;20026;-61
2021/06/07 08:16:11;;;;;;;25.25;17.58;;;;;;;;;;5034651;28;20101;-63
2021/06/07 08:18:37;;;;;;;26.90;19.00;;;;;;;;;;5034984;28;20065;-59
2021/06/07 08:21:03;;;;;;;26.15;19.58;;;;;;;;;;5022297;28;20061;-64
2021/06/07 08:23:29;;;;;;;24.83;19.00;;;;;;;;;;4997193;28;20049;-64
2021/06/07 08:25:55;;;;;;;26.80;19.52;;;;;;;;;;5014287;28;20450;-64
2021/06/07 08:28:21;;;;;;;27.55;18.05;;;;;;;;;;5015324;28;20052;-64
2021/06/07 08:30:47;;;;;;;27.10;18.25;;;;;;;;;;4996728;28;20037;-63
2021/06/07 08:33:13;;;;;;;26.38;18.48;;;;;;;;;;5014759;28;20018;-64
2021/06/07 08:35:40;;;;;;;23.88;18.15;;;;;;;;;;5014694;28;20041;-64
2021/06/07 08:38:06;;;;;;;25.80;19.70;;;;;;;;;;5014900;28;20026;-64
2021/06/07 08:40:32;;;;;;;24.30;18.17;;;;;;;;;;4996587;28;20112;-63
2021/06/07 08:42:59;;;;;;;25.52;18.27;;;;;;;;;;5016993;28;20088;-64
2021/06/07 08:45:26;;;;;;;24.52;18.05;;;;;;;;;;5034423;28;20017;-64
2021/06/07 08:47:53;;;;;;;23.85;17.40;;;;;;;;;;5034295;28;20477;-63
2021/06/07 08:50:20;;;;;;;24.67;17.23;;;;;;;;;;5033844;28;20017;-63
2021/06/07 08:52:46;;;;;;;24.38;17.10;;;;;;;;;;5016244;28;20022;-63
2021/06/07 08:55:13;;;;;;;24.98;17.85;;;;;;;;;;5034011;28;20028;-63
2021/06/07 08:57:40;;;;;;;23.25;17.10;;;;;;;;;;5033971;28;20028;-64
2021/06/07 09:00:07;;;;;;;24.88;16.75;;;;;;;;;;5015922;28;20018;-64
2021/06/07 09:02:37;;;;;;;25.20;17.05;;;;;;;;;;5033449;28;20025;-63
2021/06/07 09:05:04;;;;;;;22.00;17.33;;;;;;;;;;5033691;28;20060;-64
2021/06/07 09:07:30;;;;;;;24.45;17.50;;;;;;;;;;5033972;28;20121;-63
2021/06/07 09:10:06;;;;;;;25.10;17.73;;;;;;;;;;5033721;28;20065;-64
2021/06/07 09:12:32;;;;;;;24.52;16.90;;;;;;;;;;5033496;28;20033;-64
2021/06/07 09:14:58;;;;;;;25.90;18.27;;;;;;;;;;5016223;28;20026;-64
2021/06/07 09:17:24;;;;;;;23.48;17.80;;;;;;;;;;5033365;28;20052;-64
2021/06/07 09:20:09;;;;;;;23.13;16.40;;;;;;;;;;5032471;28;20026;-64
2021/06/07 09:22:35;;;;;;;22.50;16.08;;;;;;;;;;5016089;28;20422;-63
2021/06/07 09:25:09;;;;;;;23.90;16.00;;;;;;;;;;5034004;28;20029;-63
2021/06/07 09:27:35;;;;;;;23.95;17.50;;;;;;;;;;5033620;28;20056;-62
2021/06/07 09:30:01;;;;;;;22.92;16.75;;;;;;;;;;5033773;28;20494;-63
2021/06/07 09:32:28;;;;;;;24.52;16.77;;;;;;;;;;5033313;28;20079;-63
2021/06/07 09:35:07;;;;;;;22.30;16.73;;;;;;;;;;5033591;28;20028;-64
2021/06/07 09:37:33;;;;;;;21.25;15.57;;;;;;;;;;5015780;28;20075;-63
2021/06/07 09:40:19;;;;;;;22.00;15.98;;;;;;;;;;5015443;28;20029;-64
2021/06/07 09:42:58;;;;;;;21.35;15.27;;;;;;;;;;5033246;28;20025;-64
2021/06/07 09:45:42;;;;;;;24.55;16.10;;;;;;;;;;5033576;28;20037;-64
2021/06/07 09:48:09;;;;;;;23.20;15.82;;;;;;;;;;5012009;28;20084;-62
2021/06/07 09:50:35;;;;;;;21.90;15.43;;;;;;;;;;5013386;28;20029;-64
2021/06/07 09:53:01;;;;;;;29.10;16.83;;;;;;;;;;5012812;28;20532;-64
2021/06/07 09:55:28;;;;;;;22.70;17.23;;;;;;;;;;5013429;28;20029;-64
2021/06/07 09:58:00;;;;;;;23.75;17.23;;;;;;;;;;5013346;28;20393;-61
2021/06/07 10:00:32;;;;;;;21.48;15.85;;;;;;;;;;5013240;28;20026;-64
2021/06/07 10:03:13;;;;;;;22.25;17.27;;;;;;;;;;5011752;28;20022;-64
2021/06/07 10:05:39;;;;;;;23.23;16.63;;;;;;;;;;5011388;28;20030;-61
2021/06/07 10:08:05;;;;;;;22.35;16.40;;;;;;;;;;5011562;28;20025;-63
2021/06/07 10:10:31;;;;;;;21.48;16.15;;;;;;;;;;5012714;28;20374;-64
2021/06/07 10:13:04;;;;;;;22.25;16.10;;;;;;;;;;5012823;28;20025;-63
2021/06/07 10:15:32;;;;;;;27.15;16.48;;;;;;;;;;5011856;28;20022;-61
2021/06/07 10:17:58;;;;;;;21.27;16.05;;;;;;;;;;5012657;28;20026;-62
2021/06/07 10:22:50;;;;;;;22.23;17.17;;;;;;;;;;5012265;28;20026;-62
2021/06/07 10:25:16;;;;;;;21.80;16.35;;;;;;;;;;5012581;28;20101;-62
2021/06/07 10:27:42;;;;;;;25.52;16.98;;;;;;;;;;5012424;28;20105;-62
2021/06/07 10:30:19;;;;;;;27.40;17.52;;;;;;;;;;5011963;28;20046;-61
2021/06/07 10:32:46;;;;;;;20.92;16.45;;;;;;;;;;5011892;28;20057;-62
2021/06/07 10:35:12;;;;;;;21.48;16.13;;;;;;;;;;5011017;28;20125;-62
2021/06/07 10:37:56;;;;;;;23.20;16.20;;;;;;;;;;5012707;28;20100;-62
2021/06/07 10:40:25;;;;;;;21.95;16.98;;;;;;;;;;5012345;28;20034;-61
2021/06/07 10:43:03;;;;;;;21.73;16.80;;;;;;;;;;5011192;28;20076;-63
2021/06/07 10:45:30;;;;;;;25.15;17.65;;;;;;;;;;5012404;28;20030;-61
2021/06/07 10:47:56;;;;;;;22.70;16.95;;;;;;;;;;5012059;28;20057;-62
2021/06/07 10:50:27;;;;;;;21.38;16.40;;;;;;;;;;5010657;28;20034;-62
2021/06/07 10:52:59;;;;;;;21.95;16.45;;;;;;;;;;5010394;28;20113;-63
2021/06/07 10:55:26;;;;;;;22.40;15.80;;;;;;;;;;5012093;28;20026;-62
2021/06/07 10:57:58;;;;;;;21.88;17.33;;;;;;;;;;5011944;28;20060;-61
2021/06/07 11:00:24;;;;;;;22.60;17.27;;;;;;;;;;5011996;28;20044;-60
2021/06/07 11:02:54;;;;;;;22.65;17.15;;;;;;;;;;5011759;28;20450;-62
2021/06/07 11:05:21;;;;;;;21.02;16.92;;;;;;;;;;5010791;28;20058;-61
2021/06/07 11:08:06;;;;;;;21.20;16.30;;;;;;;;;;5010361;28;20037;-60
2021/06/07 11:10:43;;;;;;;21.60;16.92;;;;;;;;;;5010786;28;20034;-61
2021/06/07 11:13:09;;;;;;;21.45;17.35;;;;;;;;;;5012315;28;20095;-62
2021/06/07 11:15:43;;;;;;;22.10;16.92;;;;;;;;;;5012511;28;20053;-62
2021/06/07 11:18:22;;;;;;;25.90;17.60;;;21.10;99.90;;;;;;5012142;28;20384;-60
2021/06/07 11:20:49;;;;;;;20.98;16.38;;;;;;;;;;5011559;28;20030;-61
2021/06/07 11:23:21;;;;;;;22.95;17.30;;;22.80;99.90;;;;;;5010908;28;20030;-61
2021/06/07 11:25:55;;;;;;;22.40;16.42;;;23.00;99.90;;;;;;5011302;28;20049;-60
2021/06/07 11:28:30;;;;;;;22.10;17.40;;;22.20;99.90;;;;;;5011821;28;20128;-62
2021/06/07 11:30:56;;;;;;;22.00;16.60;;;22.30;99.90;;;;;;5011479;28;20041;-60
2021/06/07 11:33:22;;;;;;;21.85;15.93;;;22.60;99.90;;;;;;5010069;28;20034;-60
2021/06/07 11:35:48;;;;;;;20.35;15.50;;;22.00;99.90;;;;;;5011242;28;20025;-63
2021/06/07 11:38:33;;;;;;;21.38;15.38;;;21.70;99.90;;;;;;5011583;28;20068;-62
2021/06/07 11:42:00;;;;;;;21.52;15.13;;;21.60;99.90;;;;;;5011338;28;20026;-62
2021/06/07 11:44:44;;;;;;;21.42;14.60;;;21.70;99.90;;;;;;4970352;28;20549;-64
2021/06/07 11:47:11;;;;;;;23.35;16.70;;;21.80;99.90;;;;;;4673890;28;10000501;-64
2021/06/07 11:49:57;;;;;;;24.13;16.77;;;22.50;99.90;;;;;;5028609;28;20095;-65
2021/06/07 11:52:54;;;;;;;20.90;15.55;;;22.60;99.90;;;;;;5018897;28;20108;-63
2021/06/07 11:55:33;;;;;;;22.60;16.65;;;22.60;99.90;;;;;;5016530;28;20382;-64
2021/06/07 11:58:17;;;;;;;23.13;15.82;;;22.70;99.90;;;;;;5019443;28;20021;-63
2021/06/07 12:00:52;;;;;;;21.23;15.48;;;23.00;99.90;;;;;;5000990;28;20062;-62
2021/06/07 12:03:27;;;;;;;20.58;16.25;;;23.40;99.90;;;;;;5001187;28;20028;-70
2021/06/07 12:05:53;;;;;;;21.45;16.50;;;23.10;99.90;;;;;;5001341;28;20109;-65
2021/06/07 12:08:22;;;;;;;24.20;16.00;;;22.30;99.90;;;;;;4999677;28;20045;-62
2021/06/07 12:10:56;;;;;;;19.88;15.55;;;22.70;99.90;;;;;;5017587;28;20531;-63
2021/06/07 12:13:34;;;;;;;20.25;15.75;;;23.30;99.90;;;;;;5016691;28;20071;-61
2021/06/07 12:16:16;;;;;;;21.63;16.10;;;23.20;99.90;;;;;;5017656;28;20417;-62
2021/06/07 12:18:45;;;;;;;22.27;15.07;;;21.80;99.90;;;;;;5003018;28;20053;-63
2021/06/07 12:21:15;;;;;;;21.67;15.60;;;22.20;99.90;;;;;;5003486;28;20029;-64
2021/06/07 12:23:49;;;;;;;21.73;16.38;;;;;;;;;;5002524;28;20029;-63
2021/06/07 12:29:19;;;;;;;29.13;17.08;;;;;;;;;;5016357;28;20025;-63
2021/06/07 12:31:59;;;;;;;18.67;16.63;;;;;;;;;;5008438;28;20559;-64
2021/06/07 12:34:24;;;;;;;19.17;16.85;;;23.30;99.90;;;;;;5008655;28;20058;-65
2021/06/07 12:36:50;;;;;;;21.88;17.77;;;23.50;99.90;;;;;;5009505;28;20099;-67
2021/06/07 12:39:19;;;;;;;22.55;18.80;;;24.20;99.90;;;;;;5010542;28;20037;-64
2021/06/07 12:41:45;;;;;;;20.90;17.08;;;;;;;;;;5000969;28;20108;-62
2021/06/07 12:44:11;;;;;;;21.00;18.02;;;;;;;;;;5001825;28;20580;-64
2021/06/07 12:46:47;;;;;;;20.13;17.15;;;;;;;;;;5019105;28;20478;-64
2021/06/07 12:49:23;;;;;;;20.83;18.13;;;;;;;;;;5004222;28;20032;-64
2021/06/07 12:52:00;;;;;;;19.60;17.50;;;;;;;;;;5020556;28;20037;-65
2021/06/07 12:54:27;;;;;;;21.95;17.73;;;;;;;;;;5003870;28;20386;-63
2021/06/07 12:56:53;;;;;;;21.38;17.88;;;;;;;;;;5005696;28;20057;-63
2021/06/07 12:59:26;;;;;;;20.73;18.00;;;;;;;;;;5025204;28;20358;-64
2021/06/07 13:01:53;;;;;;;20.73;17.92;;;;;;;;;;5010066;28;20490;-64
2021/06/07 13:04:27;;;;;;;21.42;17.58;;;;;;;;;;5016696;28;20508;-66
2021/06/07 13:06:53;;;;;;;23.60;18.77;;;;;;;;;;5034965;28;20103;-66
2021/06/07 13:09:31;;;;;;;21.23;18.13;;;;;;;;;;5034354;28;20485;-66
2021/06/07 13:11:57;;;;;;;;;;;;;;;;;;5016967;28;20034;-63
2021/06/07 13:14:25;;;;;;;20.42;17.42;;;;;;;;;;5034483;28;19916;-63
2021/06/07 13:16:51;;;;;;;20.50;18.38;;;;;;;;;;5034723;28;20420;-64
2021/06/07 13:19:23;;;;;;;20.98;18.77;;;;;;;;;;5034179;28;20021;-64
2021/06/07 13:21:55;;;;;;;22.17;19.77;;;;;;;;;;5033344;28;20029;-64
2021/06/07 13:24:24;;;;;;;22.15;19.85;;;23.70;99.90;;;;;;5034174;28;20389;-64
2021/06/07 13:26:56;;;;;;;21.67;18.95;;;23.90;99.90;;;;;;5031194;28;20109;-65
2021/06/07 13:29:40;;;;;;;20.05;17.85;;;24.30;99.90;;;;;;5031701;28;20034;-66
2021/06/07 13:32:29;;;;;;;20.70;18.50;;;24.00;99.90;;;;;;5034023;28;20031;-63
2021/06/07 13:34:56;;;;;;;20.65;18.55;;;24.00;99.90;;;;;;5033816;28;20029;-64
2021/06/07 13:37:45;;;;;;;20.73;18.60;;;23.80;99.90;;;;;;5016347;28;20093;-64
2021/06/07 13:40:28;;;;;;;21.50;18.52;;;23.60;99.90;;;;;;5033132;28;20033;-63
2021/06/07 13:43:05;;;;;;;21.13;18.83;;;23.60;99.90;;;;;;5033257;28;20104;-63
2021/06/07 13:45:42;;;;;;;20.33;18.23;;;24.20;99.90;;;;;;5033868;28;20492;-65
2021/06/07 13:48:10;;;;;;;20.70;18.30;;;24.70;99.90;;;;;;4685066;28;9999812;-64
2021/06/07 13:50:56;;;;;;;21.67;17.60;;;24.20;99.90;;;;;;5031185;28;20237;-64
2021/06/07 13:53:32;;;;;;;20.27;18.08;;;24.80;99.90;;;;;;5031316;28;20029;-64
2021/06/07 13:55:59;;;;;;;21.40;19.05;;;25.20;99.90;;;;;;5033312;28;20404;-64
2021/06/07 13:58:43;;;;;;;20.90;18.80;;;24.60;99.90;;;;;;5033315;28;20021;-64
2021/06/07 14:01:12;;;;;;;22.15;18.98;;;24.50;99.90;;;;;;5033420;28;20112;-64
2021/06/07 14:03:39;;;;;;;21.98;19.73;;;24.00;99.90;;;;;;5015545;28;20481;-66
2021/06/07 14:06:15;;;;;;;22.21;19.70;;;24.00;99.90;;;;;;5030316;28;10000467;-64
2021/06/07 14:08:52;;;;;;;23.35;20.83;;;24.20;99.90;;;;;;5010714;28;20239;-65
2021/06/07 14:11:27;;;;;;;22.65;20.35;;;24.90;99.90;;;;;;5011192;28;20416;-65
2021/06/07 14:13:56;;;;;;;22.42;20.13;;;24.70;99.90;;;;;;5010481;28;20393;-65